< < Back
Terminal Aerodrome Forecast


Current Version              Previous Versions:   1  2  3  4  5  6  7  8  9  

Terminal Aerodrome Forecast

113
FTUS42 KFFC 010231 AAA
TAFAHN
TAF AMD
KAHN 010231Z 0103/0124 08008KT P6SM VCSH BKN050
      TEMPO 0103/0105 32012G22KT 3SM TSRA BKN040CB
     FM010600 13005KT P6SM OVC015
     FM010900 14004KT P6SM BKN009
     FM011400 21006KT P6SM VCSH BKN012
     FM012000 23009KT 4SM -TSRA BKN030CB=



Latest METAR

517
SAUS70 KWBC 010800 RRF
MTRAHN
METAR KAHN 010751Z AUTO 11003KT 4SM BR OVC017 19/19 A2999 RMK AO2 LTG
DSNT ALQDS SLP149 T01940194


USA.gov is the U.S. government's official web portal to all federal, state and local government web resources and services.